sensor_id;sensor_type;location;lat;lon;timestamp;pressure;altitude;pressure_sealevel;temperature;humidity
74905;BME280;63465;50.862;6.220;2023-02-11T00:00:53;101763.88;;;6.60;73.34
74905;BME280;63465;50.862;6.220;2023-02-11T00:03:20;101777.03;;;6.46;74.04
74905;BME280;63465;50.862;6.220;2023-02-11T00:05:55;101772.66;;;6.51;73.70
74905;BME280;63465;50.862;6.220;2023-02-11T00:08:22;101767.38;;;6.50;73.69
74905;BME280;63465;50.862;6.220;2023-02-11T00:10:51;101764.75;;;6.53;73.70
74905;BME280;63465;50.862;6.220;2023-02-11T00:13:18;101763.81;;;6.32;74.26
74905;BME280;63465;50.862;6.220;2023-02-11T00:15:45;101762.97;;;6.44;74.36
74905;BME280;63465;50.862;6.220;2023-02-11T00:18:12;101778.78;;;6.39;74.45
74905;BME280;63465;50.862;6.220;2023-02-11T00:20:39;101786.69;;;6.32;74.63
74905;BME280;63465;50.862;6.220;2023-02-11T00:23:06;101779.63;;;6.28;75.02
74905;BME280;63465;50.862;6.220;2023-02-11T00:25:37;101770.84;;;6.25;75.18
74905;BME280;63465;50.862;6.220;2023-02-11T00:28:05;101769.97;;;6.27;75.18
74905;BME280;63465;50.862;6.220;2023-02-11T00:30:32;101756.78;;;6.22;75.23
74905;BME280;63465;50.862;6.220;2023-02-11T00:32:59;101761.16;;;6.20;75.14
74905;BME280;63465;50.862;6.220;2023-02-11T00:35:25;101744.47;;;6.18;75.26
74905;BME280;63465;50.862;6.220;2023-02-11T00:37:52;101754.13;;;6.10;75.46
74905;BME280;63465;50.862;6.220;2023-02-11T00:40:20;101748.84;;;6.06;75.63
74905;BME280;63465;50.862;6.220;2023-02-11T00:42:46;101755.88;;;6.09;75.57
74905;BME280;63465;50.862;6.220;2023-02-11T00:45:14;101753.22;;;6.09;75.62
74905;BME280;63465;50.862;6.220;2023-02-11T00:47:41;101740.94;;;6.05;76.21
74905;BME280;63465;50.862;6.220;2023-02-11T00:50:08;101729.47;;;6.00;76.40
74905;BME280;63465;50.862;6.220;2023-02-11T00:52:35;101732.13;;;6.04;76.15
74905;BME280;63465;50.862;6.220;2023-02-11T00:55:01;101747.09;;;6.12;76.39
74905;BME280;63465;50.862;6.220;2023-02-11T00:57:28;101729.50;;;6.11;76.44
74905;BME280;63465;50.862;6.220;2023-02-11T00:59:55;101735.66;;;6.06;76.67
74905;BME280;63465;50.862;6.220;2023-02-11T01:02:23;101733.03;;;6.06;76.51
74905;BME280;63465;50.862;6.220;2023-02-11T01:04:49;101749.72;;;6.05;76.24
74905;BME280;63465;50.862;6.220;2023-02-11T01:07:16;101737.38;;;6.00;76.70
74905;BME280;63465;50.862;6.220;2023-02-11T01:09:42;101738.31;;;6.03;76.64
74905;BME280;63465;50.862;6.220;2023-02-11T01:12:09;101742.66;;;6.03;76.79
74905;BME280;63465;50.862;6.220;2023-02-11T01:14:38;101745.31;;;6.01;76.82
74905;BME280;63465;50.862;6.220;2023-02-11T01:17:05;101747.94;;;6.03;76.77
74905;BME280;63465;50.862;6.220;2023-02-11T01:19:33;101748.84;;;6.10;76.54
74905;BME280;63465;50.862;6.220;2023-02-11T01:21:59;101748.78;;;5.94;76.55
74905;BME280;63465;50.862;6.220;2023-02-11T01:24:26;101748.75;;;5.91;76.80
74905;BME280;63465;50.862;6.220;2023-02-11T01:26:53;101758.41;;;5.94;76.96
74905;BME280;63465;50.862;6.220;2023-02-11T01:29:22;101761.13;;;6.07;76.20
74905;BME280;63465;50.862;6.220;2023-02-11T01:31:53;101752.34;;;6.02;76.46
74905;BME280;63465;50.862;6.220;2023-02-11T01:34:19;101757.53;;;5.90;76.68
74905;BME280;63465;50.862;6.220;2023-02-11T01:36:47;101760.19;;;5.96;76.88
74905;BME280;63465;50.862;6.220;2023-02-11T01:39:14;101761.13;;;6.07;76.33
74905;BME280;63465;50.862;6.220;2023-02-11T01:41:41;101771.59;;;5.95;76.91
74905;BME280;63465;50.862;6.220;2023-02-11T01:44:22;101753.16;;;5.94;76.63
74905;BME280;63465;50.862;6.220;2023-02-11T01:46:50;101746.09;;;5.85;77.23
74905;BME280;63465;50.862;6.220;2023-02-11T01:49:20;101757.63;;;6.01;76.51
74905;BME280;63465;50.862;6.220;2023-02-11T01:51:54;101772.47;;;5.91;76.88
74905;BME280;63465;50.862;6.220;2023-02-11T01:54:24;101772.56;;;6.03;76.56
74905;BME280;63465;50.862;6.220;2023-02-11T01:57:11;101774.31;;;6.11;76.36
74905;BME280;63465;50.862;6.220;2023-02-11T01:59:53;101776.94;;;6.07;76.74
74905;BME280;63465;50.862;6.220;2023-02-11T02:02:26;101769.06;;;6.17;76.39
74905;BME280;63465;50.862;6.220;2023-02-11T02:04:59;101757.66;;;6.13;76.29
74905;BME280;63465;50.862;6.220;2023-02-11T02:07:32;101764.72;;;6.27;76.00
74905;BME280;63465;50.862;6.220;2023-02-11T02:10:05;101786.66;;;6.22;76.08
74905;BME280;63465;50.862;6.220;2023-02-11T02:12:35;101790.16;;;6.20;76.37
74905;BME280;63465;50.862;6.220;2023-02-11T02:15:21;101791.97;;;6.33;76.01
74905;BME280;63465;50.862;6.220;2023-02-11T02:17:55;101790.16;;;6.15;76.18
74905;BME280;63465;50.862;6.220;2023-02-11T02:20:55;101785.81;;;6.25;76.26
74905;BME280;63465;50.862;6.220;2023-02-11T02:23:36;101786.69;;;6.27;75.94
74905;BME280;63465;50.862;6.220;2023-02-11T02:26:30;101769.97;;;6.14;76.41
74905;BME280;63465;50.862;6.220;2023-02-11T02:29:26;101768.19;;;6.21;76.19
74905;BME280;63465;50.862;6.220;2023-02-11T02:35:02;101782.28;;;6.31;76.54
74905;BME280;63465;50.862;6.220;2023-02-11T02:37:35;101775.25;;;6.31;76.25
74905;BME280;63465;50.862;6.220;2023-02-11T02:40:08;101772.63;;;6.30;76.13
74905;BME280;63465;50.862;6.220;2023-02-11T02:42:36;101770.81;;;6.15;76.63
74905;BME280;63465;50.862;6.220;2023-02-11T02:45:06;101765.56;;;6.21;76.64
74905;BME280;63465;50.862;6.220;2023-02-11T02:47:35;101755.84;;;5.98;77.59
74905;BME280;63465;50.862;6.220;2023-02-11T02:50:02;101756.63;;;5.89;78.15
74905;BME280;63465;50.862;6.220;2023-02-11T02:52:34;101757.63;;;6.01;77.58
74905;BME280;63465;50.862;6.220;2023-02-11T02:55:10;101759.38;;;6.05;77.57
74905;BME280;63465;50.862;6.220;2023-02-11T02:57:50;101757.63;;;6.09;77.48
74905;BME280;63465;50.862;6.220;2023-02-11T03:00:29;101751.47;;;5.97;77.61
74905;BME280;63465;50.862;6.220;2023-02-11T03:03:14;101747.03;;;5.96;78.04
74905;BME280;63465;50.862;6.220;2023-02-11T03:05:47;101750.50;;;5.87;78.12
74905;BME280;63465;50.862;6.220;2023-02-11T03:08:17;101748.72;;;5.85;78.60
74905;BME280;63465;50.862;6.220;2023-02-11T03:10:50;101731.19;;;5.84;78.49
74905;BME280;63465;50.862;6.220;2023-02-11T03:13:22;101729.41;;;5.83;78.54
74905;BME280;63465;50.862;6.220;2023-02-11T03:15:52;101740.78;;;5.77;78.82
74905;BME280;63465;50.862;6.220;2023-02-11T03:18:38;101737.31;;;5.87;78.47
74905;BME280;63465;50.862;6.220;2023-02-11T03:21:07;101735.56;;;5.86;78.41
74905;BME280;63465;50.862;6.220;2023-02-11T03:23:38;101734.72;;;5.95;78.33
74905;BME280;63465;50.862;6.220;2023-02-11T03:26:10;101736.47;;;5.87;78.62
74905;BME280;63465;50.862;6.220;2023-02-11T03:28:43;101730.28;;;5.88;78.52
74905;BME280;63465;50.862;6.220;2023-02-11T03:31:19;101729.41;;;5.83;78.84
74905;BME280;63465;50.862;6.220;2023-02-11T03:33:53;101725.91;;;5.79;78.77
74905;BME280;63465;50.862;6.220;2023-02-11T03:36:23;101723.25;;;5.78;78.90
74905;BME280;63465;50.862;6.220;2023-02-11T03:38:56;101717.06;;;5.69;79.24
74905;BME280;63465;50.862;6.220;2023-02-11T03:41:26;101732.84;;;5.69;79.66
74905;BME280;63465;50.862;6.220;2023-02-11T03:43:55;101718.84;;;5.72;79.56
74905;BME280;63465;50.862;6.220;2023-02-11T03:46:31;101723.25;;;5.73;79.63
74905;BME280;63465;50.862;6.220;2023-02-11T03:49:03;101718.84;;;5.75;79.55
74905;BME280;63465;50.862;6.220;2023-02-11T03:51:31;101711.78;;;5.66;79.95
74905;BME280;63465;50.862;6.220;2023-02-11T03:54:01;101714.41;;;5.66;80.20
74905;BME280;63465;50.862;6.220;2023-02-11T03:56:34;101697.78;;;5.77;79.97
74905;BME280;63465;50.862;6.220;2023-02-11T03:59:02;101706.53;;;5.69;80.22
74905;BME280;63465;50.862;6.220;2023-02-11T04:01:29;101709.16;;;5.72;80.09
74905;BME280;63465;50.862;6.220;2023-02-11T04:03:56;101707.44;;;5.75;80.38
74905;BME280;63465;50.862;6.220;2023-02-11T04:06:24;101703.06;;;5.83;79.84
74905;BME280;63465;50.862;6.220;2023-02-11T04:08:51;101703.91;;;5.80;80.03
74905;BME280;63465;50.862;6.220;2023-02-11T04:11:17;101701.34;;;5.94;80.05
74905;BME280;63465;50.862;6.220;2023-02-11T04:13:44;101701.28;;;5.86;80.06
74905;BME280;63465;50.862;6.220;2023-02-11T04:16:10;101710.97;;;5.90;80.22
74905;BME280;63465;50.862;6.220;2023-02-11T04:18:37;101704.84;;;5.93;79.91
74905;BME280;63465;50.862;6.220;2023-02-11T04:21:04;101707.47;;;5.85;79.72
74905;BME280;63465;50.862;6.220;2023-02-11T04:23:32;101719.75;;;5.91;79.94
74905;BME280;63465;50.862;6.220;2023-02-11T04:25:59;101713.59;;;5.87;80.14
74905;BME280;63465;50.862;6.220;2023-02-11T04:28:26;101707.47;;;5.93;80.31
74905;BME280;63465;50.862;6.220;2023-02-11T04:30:54;101698.66;;;5.79;80.87
74905;BME280;63465;50.862;6.220;2023-02-11T04:33:21;101709.25;;;5.94;80.56
74905;BME280;63465;50.862;6.220;2023-02-11T04:35:48;101697.81;;;5.89;80.96
74905;BME280;63465;50.862;6.220;2023-02-11T04:38:15;101701.31;;;5.88;81.18
74905;BME280;63465;50.862;6.220;2023-02-11T04:40:43;101692.53;;;5.86;81.66
74905;BME280;63465;50.862;6.220;2023-02-11T04:43:10;101693.38;;;5.82;81.90
74905;BME280;63465;50.862;6.220;2023-02-11T04:45:36;101696.94;;;5.88;81.86
74905;BME280;63465;50.862;6.220;2023-02-11T04:48:03;101700.41;;;5.75;82.92
74905;BME280;63465;50.862;6.220;2023-02-11T04:50:30;101701.25;;;5.68;83.56
74905;BME280;63465;50.862;6.220;2023-02-11T04:52:57;101698.63;;;5.72;83.43
74905;BME280;63465;50.862;6.220;2023-02-11T04:55:23;101698.63;;;5.68;84.60
74905;BME280;63465;50.862;6.220;2023-02-11T04:57:51;101689.84;;;5.64;84.72
74905;BME280;63465;50.862;6.220;2023-02-11T05:00:19;101703.81;;;5.52;86.21
74905;BME280;63465;50.862;6.220;2023-02-11T05:02:46;101709.09;;;5.56;86.10
74905;BME280;63465;50.862;6.220;2023-02-11T05:05:13;101702.13;;;5.64;85.97
74905;BME280;63465;50.862;6.220;2023-02-11T05:07:40;101708.28;;;5.69;85.97
74905;BME280;63465;50.862;6.220;2023-02-11T05:10:06;101696.84;;;5.62;86.32
74905;BME280;63465;50.862;6.220;2023-02-11T05:12:33;101691.56;;;5.53;86.18
74905;BME280;63465;50.862;6.220;2023-02-11T05:15:01;101695.94;;;5.57;86.28
74905;BME280;63465;50.862;6.220;2023-02-11T05:17:28;101689.81;;;5.57;86.62
74905;BME280;63465;50.862;6.220;2023-02-11T05:19:55;101692.44;;;5.58;86.29
74905;BME280;63465;50.862;6.220;2023-02-11T05:22:21;101686.28;;;5.54;86.45
74905;BME280;63465;50.862;6.220;2023-02-11T05:24:48;101678.41;;;5.56;86.79
74905;BME280;63465;50.862;6.220;2023-02-11T05:27:15;101671.41;;;5.72;85.92
74905;BME280;63465;50.862;6.220;2023-02-11T05:29:42;101680.19;;;5.69;85.73
74905;BME280;63465;50.862;6.220;2023-02-11T05:32:10;101682.81;;;5.72;86.01
74905;BME280;63465;50.862;6.220;2023-02-11T05:34:36;101694.25;;;5.68;86.24
74905;BME280;63465;50.862;6.220;2023-02-11T05:37:03;101693.38;;;5.77;86.01
74905;BME280;63465;50.862;6.220;2023-02-11T05:39:30;101691.66;;;5.81;86.27
74905;BME280;63465;50.862;6.220;2023-02-11T05:41:56;101690.72;;;5.72;85.87
74905;BME280;63465;50.862;6.220;2023-02-11T05:44:23;101689.00;;;5.75;86.26
74905;BME280;63465;50.862;6.220;2023-02-11T05:46:50;101674.03;;;5.69;85.97
74905;BME280;63465;50.862;6.220;2023-02-11T05:49:18;101675.78;;;5.64;86.50
74905;BME280;63465;50.862;6.220;2023-02-11T05:51:44;101671.44;;;5.89;85.99
74905;BME280;63465;50.862;6.220;2023-02-11T05:54:11;101672.28;;;5.69;86.36
74905;BME280;63465;50.862;6.220;2023-02-11T05:56:38;101671.47;;;5.90;86.05
74905;BME280;63465;50.862;6.220;2023-02-11T05:59:05;101675.81;;;5.75;86.71
74905;BME280;63465;50.862;6.220;2023-02-11T06:01:31;101675.84;;;5.78;86.49
74905;BME280;63465;50.862;6.220;2023-02-11T06:03:58;101678.50;;;5.92;85.78
74905;BME280;63465;50.862;6.220;2023-02-11T06:06:26;101677.59;;;5.86;86.13
74905;BME280;63465;50.862;6.220;2023-02-11T06:08:53;101670.59;;;5.87;86.46
74905;BME280;63465;50.862;6.220;2023-02-11T06:11:20;101671.44;;;5.84;86.24
74905;BME280;63465;50.862;6.220;2023-02-11T06:13:47;101669.69;;;5.86;86.33
74905;BME280;63465;50.862;6.220;2023-02-11T06:16:14;101674.09;;;5.92;86.04
74905;BME280;63465;50.862;6.220;2023-02-11T06:18:40;101676.72;;;5.81;86.71
74905;BME280;63465;50.862;6.220;2023-02-11T06:21:08;101678.50;;;5.87;86.18
74905;BME280;63465;50.862;6.220;2023-02-11T06:23:37;101677.59;;;5.85;86.67
74905;BME280;63465;50.862;6.220;2023-02-11T06:26:05;101673.22;;;5.95;85.94
74905;BME280;63465;50.862;6.220;2023-02-11T06:28:32;101675.84;;;5.90;86.33
74905;BME280;63465;50.862;6.220;2023-02-11T06:31:03;101674.13;;;5.97;86.03
74905;BME280;63465;50.862;6.220;2023-02-11T06:33:30;101684.69;;;6.11;85.45
74905;BME280;63465;50.862;6.220;2023-02-11T06:35:57;101679.38;;;5.95;85.97
74905;BME280;63465;50.862;6.220;2023-02-11T06:38:24;101685.59;;;6.02;86.28
74905;BME280;63465;50.862;6.220;2023-02-11T06:40:52;101691.75;;;6.10;85.52
74905;BME280;63465;50.862;6.220;2023-02-11T06:43:19;101697.00;;;6.01;86.55
74905;BME280;63465;50.862;6.220;2023-02-11T06:45:51;101701.41;;;6.02;86.47
74905;BME280;63465;50.862;6.220;2023-02-11T06:48:18;101692.63;;;6.17;85.58
74905;BME280;63465;50.862;6.220;2023-02-11T06:50:45;101686.47;;;6.04;86.19
74905;BME280;63465;50.862;6.220;2023-02-11T06:53:12;101697.00;;;6.01;86.66
74905;BME280;63465;50.862;6.220;2023-02-11T06:55:38;101698.72;;;5.96;86.48
74905;BME280;63465;50.862;6.220;2023-02-11T06:58:06;101702.25;;;6.01;86.70
74905;BME280;63465;50.862;6.220;2023-02-11T07:00:33;101702.28;;;6.16;86.28
74905;BME280;63465;50.862;6.220;2023-02-11T07:03:00;101708.41;;;6.11;86.30
74905;BME280;63465;50.862;6.220;2023-02-11T07:05:26;101711.03;;;6.00;86.75
74905;BME280;63465;50.862;6.220;2023-02-11T07:07:53;101706.56;;;5.85;87.68
74905;BME280;63465;50.862;6.220;2023-02-11T07:10:20;101713.63;;;5.94;87.97
74905;BME280;63465;50.862;6.220;2023-02-11T07:12:46;101707.50;;;5.95;87.92
74905;BME280;63465;50.862;6.220;2023-02-11T07:15:15;101713.63;;;5.95;87.97
74905;BME280;63465;50.862;6.220;2023-02-11T07:17:41;101715.44;;;6.05;87.74
74905;BME280;63465;50.862;6.220;2023-02-11T07:20:09;101715.38;;;5.85;88.02
74905;BME280;63465;50.862;6.220;2023-02-11T07:22:36;101725.91;;;5.85;88.90
74905;BME280;63465;50.862;6.220;2023-02-11T07:25:04;101720.66;;;5.93;88.08
74905;BME280;63465;50.862;6.220;2023-02-11T07:27:31;101730.41;;;6.03;88.30
74905;BME280;63465;50.862;6.220;2023-02-11T07:29:57;101732.97;;;5.93;88.41
74905;BME280;63465;50.862;6.220;2023-02-11T07:32:25;101734.78;;;6.11;88.02
74905;BME280;63465;50.862;6.220;2023-02-11T07:34:52;101732.06;;;5.86;88.84
74905;BME280;63465;50.862;6.220;2023-02-11T07:37:19;101740.81;;;5.82;89.40
74905;BME280;63465;50.862;6.220;2023-02-11T07:39:45;101742.59;;;5.86;88.99
74905;BME280;63465;50.862;6.220;2023-02-11T07:42:12;101744.38;;;5.92;88.96
74905;BME280;63465;50.862;6.220;2023-02-11T07:44:39;101753.13;;;5.86;89.09
74905;BME280;63465;50.862;6.220;2023-02-11T07:47:06;101754.09;;;6.00;89.13
74905;BME280;63465;50.862;6.220;2023-02-11T07:49:34;101743.50;;;5.93;88.59
74905;BME280;63465;50.862;6.220;2023-02-11T07:52:00;101750.59;;;6.04;88.25
74905;BME280;63465;50.862;6.220;2023-02-11T07:54:27;101747.94;;;5.97;89.05
74905;BME280;63465;50.862;6.220;2023-02-11T07:56:54;101750.56;;;5.97;88.81
74905;BME280;63465;50.862;6.220;2023-02-11T07:59:21;101753.16;;;5.92;89.03
74905;BME280;63465;50.862;6.220;2023-02-11T08:01:49;101751.41;;;5.93;89.02
74905;BME280;63465;50.862;6.220;2023-02-11T08:04:16;101753.13;;;5.87;89.43
74905;BME280;63465;50.862;6.220;2023-02-11T08:06:44;101761.91;;;5.86;89.97
74905;BME280;63465;50.862;6.220;2023-02-11T08:09:14;101757.50;;;5.78;90.08
74905;BME280;63465;50.862;6.220;2023-02-11T08:11:41;101763.59;;;5.70;90.53
74905;BME280;63465;50.862;6.220;2023-02-11T08:14:08;101761.91;;;5.85;89.80
74905;BME280;63465;50.862;6.220;2023-02-11T08:16:35;101765.44;;;5.85;89.72
74905;BME280;63465;50.862;6.220;2023-02-11T08:19:05;101752.25;;;5.85;89.52
74905;BME280;63465;50.862;6.220;2023-02-11T08:21:32;101757.53;;;5.84;90.31
74905;BME280;63465;50.862;6.220;2023-02-11T08:24:02;101767.09;;;5.69;90.08
74905;BME280;63465;50.862;6.220;2023-02-11T08:26:30;101768.00;;;5.71;90.55
74905;BME280;63465;50.862;6.220;2023-02-11T08:29:00;101762.81;;;5.93;89.66
74905;BME280;63465;50.862;6.220;2023-02-11T08:31:30;101767.13;;;5.77;90.43
74905;BME280;63465;50.862;6.220;2023-02-11T08:33:58;101762.69;;;5.56;90.70
74905;BME280;63465;50.862;6.220;2023-02-11T08:36:28;101757.41;;;5.56;91.32
74905;BME280;63465;50.862;6.220;2023-02-11T08:38:56;101766.19;;;5.61;91.14
74905;BME280;63465;50.862;6.220;2023-02-11T08:41:26;101774.13;;;5.63;91.23
74905;BME280;63465;50.862;6.220;2023-02-11T08:43:52;101783.81;;;5.70;91.31
74905;BME280;63465;50.862;6.220;2023-02-11T08:46:19;101781.16;;;5.65;91.54
74905;BME280;63465;50.862;6.220;2023-02-11T08:48:46;101795.19;;;5.67;91.42
74905;BME280;63465;50.862;6.220;2023-02-11T08:51:16;101787.31;;;5.70;91.48
74905;BME280;63465;50.862;6.220;2023-02-11T08:53:43;101778.50;;;5.59;91.76
74905;BME280;63465;50.862;6.220;2023-02-11T08:56:11;101782.06;;;5.70;91.43
74905;BME280;63465;50.862;6.220;2023-02-11T08:58:40;101787.34;;;5.80;91.34
74905;BME280;63465;50.862;6.220;2023-02-11T09:01:10;101792.59;;;5.74;91.35
74905;BME280;63465;50.862;6.220;2023-02-11T09:03:37;101798.75;;;5.79;91.77
74905;BME280;63465;50.862;6.220;2023-02-11T09:06:05;101792.63;;;5.83;91.68
74905;BME280;63465;50.862;6.220;2023-02-11T09:08:33;101793.50;;;5.82;91.56
74905;BME280;63465;50.862;6.220;2023-02-11T09:11:00;101799.66;;;5.81;91.37
74905;BME280;63465;50.862;6.220;2023-02-11T09:13:27;101777.81;;;5.97;90.87
74905;BME280;63465;50.862;6.220;2023-02-11T09:15:55;101792.66;;;5.89;91.06
74905;BME280;63465;50.862;6.220;2023-02-11T09:18:21;101786.63;;;6.05;90.86
74905;BME280;63465;50.862;6.220;2023-02-11T09:20:49;101798.03;;;6.11;90.71
74905;BME280;63465;50.862;6.220;2023-02-11T09:23:15;101798.94;;;6.10;90.67
74905;BME280;63465;50.862;6.220;2023-02-11T09:25:42;101793.69;;;6.20;90.11
74905;BME280;63465;50.862;6.220;2023-02-11T09:28:09;101798.09;;;6.28;90.01
74905;BME280;63465;50.862;6.220;2023-02-11T09:30:36;101799.88;;;6.30;89.84
74905;BME280;63465;50.862;6.220;2023-02-11T09:33:05;101806.00;;;6.31;89.89
74905;BME280;63465;50.862;6.220;2023-02-11T09:35:32;101806.88;;;6.19;89.83
74905;BME280;63465;50.862;6.220;2023-02-11T09:37:59;101816.56;;;6.31;89.84
74905;BME280;63465;50.862;6.220;2023-02-11T09:40:25;101830.63;;;6.28;89.31
74905;BME280;63465;50.862;6.220;2023-02-11T09:42:56;101831.53;;;6.35;89.20
74905;BME280;63465;50.862;6.220;2023-02-11T09:45:27;101828.84;;;6.19;90.02
74905;BME280;63465;50.862;6.220;2023-02-11T09:47:56;101829.78;;;6.45;89.04
74905;BME280;63465;50.862;6.220;2023-02-11T09:50:29;101827.06;;;6.20;89.93
74905;BME280;63465;50.862;6.220;2023-02-11T09:52:59;101817.44;;;6.28;89.72
74905;BME280;63465;50.862;6.220;2023-02-11T09:55:29;101822.72;;;6.28;89.89
74905;BME280;63465;50.862;6.220;2023-02-11T09:57:56;101820.94;;;6.24;89.84
74905;BME280;63465;50.862;6.220;2023-02-11T10:00:27;101822.75;;;6.42;89.65
74905;BME280;63465;50.862;6.220;2023-02-11T10:06:00;101835.03;;;6.45;88.72
74905;BME280;63465;50.862;6.220;2023-02-11T10:08:40;101842.13;;;6.58;89.02
74905;BME280;63465;50.862;6.220;2023-02-11T10:11:18;101836.88;;;6.79;87.99
74905;BME280;63465;50.862;6.220;2023-02-11T10:13:53;101844.75;;;6.59;88.44
74905;BME280;63465;50.862;6.220;2023-02-11T10:16:35;101844.78;;;6.79;87.77
74905;BME280;63465;50.862;6.220;2023-02-11T10:19:16;101850.06;;;6.78;87.56
74905;BME280;63465;50.862;6.220;2023-02-11T10:21:56;101855.28;;;6.52;88.46
74905;BME280;63465;50.862;6.220;2023-02-11T10:24:25;101854.41;;;6.47;88.81
74905;BME280;63465;50.862;6.220;2023-02-11T10:26:53;101858.81;;;6.52;89.00
74905;BME280;63465;50.862;6.220;2023-02-11T10:29:29;101859.72;;;6.62;88.66
74905;BME280;63465;50.862;6.220;2023-02-11T10:32:00;101860.59;;;6.63;88.45
74905;BME280;63465;50.862;6.220;2023-02-11T10:34:29;101861.53;;;6.89;87.74
74905;BME280;63465;50.862;6.220;2023-02-11T10:36:57;101863.25;;;6.64;88.47
74905;BME280;63465;50.862;6.220;2023-02-11T10:39:26;101869.41;;;6.58;88.82
74905;BME280;63465;50.862;6.220;2023-02-11T10:41:55;101865.03;;;6.84;88.45
74905;BME280;63465;50.862;6.220;2023-02-11T10:44:26;101870.31;;;6.74;87.85
74905;BME280;63465;50.862;6.220;2023-02-11T10:46:56;101863.19;;;6.49;89.71
74905;BME280;63465;50.862;6.220;2023-02-11T10:49:38;101867.63;;;6.62;89.78
74905;BME280;63465;50.862;6.220;2023-02-11T10:52:16;101864.09;;;6.54;89.89
74905;BME280;63465;50.862;6.220;2023-02-11T10:54:55;101874.69;;;6.66;89.76
74905;BME280;63465;50.862;6.220;2023-02-11T10:57:25;101867.63;;;6.59;89.84
74905;BME280;63465;50.862;6.220;2023-02-11T10:59:57;101866.78;;;6.65;89.84
74905;BME280;63465;50.862;6.220;2023-02-11T11:02:28;101866.78;;;6.71;89.86
74905;BME280;63465;50.862;6.220;2023-02-11T11:05:00;101865.91;;;6.89;88.71
74905;BME280;63465;50.862;6.220;2023-02-11T11:07:32;101862.41;;;6.90;88.89
74905;BME280;63465;50.862;6.220;2023-02-11T11:10:02;101865.00;;;6.60;89.86
74905;BME280;63465;50.862;6.220;2023-02-11T11:12:35;101865.88;;;6.58;89.97
74905;BME280;63465;50.862;6.220;2023-02-11T11:15:15;101864.09;;;6.55;90.28
74905;BME280;63465;50.862;6.220;2023-02-11T11:17:43;101868.50;;;6.59;90.48
74905;BME280;63465;50.862;6.220;2023-02-11T11:20:24;101872.09;;;6.82;89.87
74905;BME280;63465;50.862;6.220;2023-02-11T11:23:08;101861.53;;;6.82;89.55
74905;BME280;63465;50.862;6.220;2023-02-11T11:25:38;101865.91;;;6.93;89.25
74905;BME280;63465;50.862;6.220;2023-02-11T11:28:19;101870.31;;;6.73;89.84
74905;BME280;63465;50.862;6.220;2023-02-11T11:30:47;101870.31;;;6.77;89.91
74905;BME280;63465;50.862;6.220;2023-02-11T11:33:18;101858.91;;;7.02;89.39
74905;BME280;63465;50.862;6.220;2023-02-11T11:35:56;101857.13;;;6.97;89.39
74905;BME280;63465;50.862;6.220;2023-02-11T11:38:26;101865.06;;;7.02;88.86
74905;BME280;63465;50.862;6.220;2023-02-11T11:41:16;101868.56;;;7.01;88.66
74905;BME280;63465;50.862;6.220;2023-02-11T11:43:57;101858.03;;;7.26;87.88
74905;BME280;63465;50.862;6.220;2023-02-11T11:46:27;101856.25;;;7.09;88.39
74905;BME280;63465;50.862;6.220;2023-02-11T11:48:59;101857.13;;;7.08;88.34
74905;BME280;63465;50.862;6.220;2023-02-11T11:51:31;101860.63;;;7.17;88.13
74905;BME280;63465;50.862;6.220;2023-02-11T11:54:03;101859.78;;;7.21;87.63
74905;BME280;63465;50.862;6.220;2023-02-11T11:56:33;101860.63;;;7.09;88.43
74905;BME280;63465;50.862;6.220;2023-02-11T11:59:10;101858.91;;;7.02;88.63
74905;BME280;63465;50.862;6.220;2023-02-11T12:01:47;101851.84;;;7.11;88.41
74905;BME280;63465;50.862;6.220;2023-02-11T12:04:39;101843.91;;;7.25;87.96
74905;BME280;63465;50.862;6.220;2023-02-11T12:07:17;101850.97;;;7.16;88.25
74905;BME280;63465;50.862;6.220;2023-02-11T12:10:01;101853.63;;;7.28;87.95
74905;BME280;63465;50.862;6.220;2023-02-11T12:12:39;101848.34;;;7.23;87.99
74905;BME280;63465;50.862;6.220;2023-02-11T12:15:22;101854.47;;;7.24;87.84
74905;BME280;63465;50.862;6.220;2023-02-11T12:20:57;101851.84;;;7.21;87.81
74905;BME280;63465;50.862;6.220;2023-02-11T12:23:45;101852.72;;;7.21;88.53
74905;BME280;63465;50.862;6.220;2023-02-11T12:26:17;101851.84;;;7.36;87.71
74905;BME280;63465;50.862;6.220;2023-02-11T12:28:57;101843.03;;;7.31;88.53
74905;BME280;63465;50.862;6.220;2023-02-11T12:31:36;101849.16;;;7.48;87.54
74905;BME280;63465;50.862;6.220;2023-02-11T12:34:14;101853.63;;;7.28;88.05
74905;BME280;63465;50.862;6.220;2023-02-11T12:36:56;101850.09;;;7.30;88.60
74905;BME280;63465;50.862;6.220;2023-02-11T12:39:33;101864.16;;;7.31;87.83
74905;BME280;63465;50.862;6.220;2023-02-11T12:42:18;101863.31;;;7.32;88.18
74905;BME280;63465;50.862;6.220;2023-02-11T12:45:14;101850.94;;;7.53;87.59
74905;BME280;63465;50.862;6.220;2023-02-11T12:47:53;101851.78;;;7.58;87.42
74905;BME280;63465;50.862;6.220;2023-02-11T12:50:28;101858.88;;;7.48;87.95
74905;BME280;63465;50.862;6.220;2023-02-11T12:53:06;101854.47;;;7.39;87.79
74905;BME280;63465;50.862;6.220;2023-02-11T12:55:39;101850.09;;;7.37;88.13
74905;BME280;63465;50.862;6.220;2023-02-11T12:58:15;101852.72;;;7.54;88.36
74905;BME280;63465;50.862;6.220;2023-02-11T13:00:47;101854.44;;;7.55;88.26
74905;BME280;63465;50.862;6.220;2023-02-11T13:03:20;101860.59;;;7.67;87.21
74905;BME280;63465;50.862;6.220;2023-02-11T13:05:52;101850.94;;;7.59;87.74
74905;BME280;63465;50.862;6.220;2023-02-11T13:08:24;101862.34;;;7.67;87.54
74905;BME280;63465;50.862;6.220;2023-02-11T13:10:57;101845.63;;;7.59;87.60
74905;BME280;63465;50.862;6.220;2023-02-11T13:13:32;101847.41;;;7.55;87.86
74905;BME280;63465;50.862;6.220;2023-02-11T13:16:03;101847.44;;;7.50;87.81
74905;BME280;63465;50.862;6.220;2023-02-11T13:18:43;101850.94;;;7.59;87.56
74905;BME280;63465;50.862;6.220;2023-02-11T13:21:29;101844.75;;;7.71;87.38
74905;BME280;63465;50.862;6.220;2023-02-11T13:24:06;101850.00;;;7.77;87.24
74905;BME280;63465;50.862;6.220;2023-02-11T13:26:41;101847.41;;;7.60;87.19